createdAt,value
2022-09-20T00:00:33.967Z,994.81
2022-09-20T00:01:34.083Z,994.81
2022-09-20T00:02:34.067Z,994.80
2022-09-20T00:03:33.930Z,994.89
2022-09-20T00:04:33.951Z,994.77
2022-09-20T00:05:33.917Z,994.89
2022-09-20T00:06:33.909Z,994.91
2022-09-20T00:07:33.867Z,994.89
2022-09-20T00:08:33.869Z,994.96
2022-09-20T00:09:33.873Z,994.94
2022-09-20T00:10:33.837Z,994.97
2022-09-20T00:11:33.858Z,994.89
2022-09-20T00:12:33.819Z,994.94
2022-09-20T00:13:33.794Z,994.97
2022-09-20T00:14:33.784Z,994.94
2022-09-20T00:15:33.776Z,994.96
2022-09-20T00:16:33.856Z,995.00
2022-09-20T00:17:33.747Z,994.95
2022-09-20T00:18:33.737Z,994.96
2022-09-20T00:19:33.716Z,994.99
2022-09-20T00:20:33.709Z,994.94
2022-09-20T00:21:33.737Z,994.98
2022-09-20T00:22:33.671Z,994.93
2022-09-20T00:23:33.664Z,994.92
2022-09-20T00:24:33.657Z,994.94
2022-09-20T00:25:33.646Z,994.96
2022-09-20T00:26:33.657Z,994.94
2022-09-20T00:27:33.616Z,994.93
2022-09-20T00:28:33.621Z,994.91
2022-09-20T00:29:33.597Z,994.95
2022-09-20T00:30:33.565Z,994.95
2022-09-20T00:31:33.645Z,994.98
2022-09-20T00:32:33.546Z,994.94
2022-09-20T00:33:33.547Z,994.96
2022-09-20T00:34:33.517Z,994.90
2022-09-20T00:35:33.515Z,994.84
2022-09-20T00:36:33.536Z,994.92
2022-09-20T00:37:33.492Z,994.88
2022-09-20T00:38:33.466Z,994.84
2022-09-20T00:39:33.458Z,994.85
2022-09-20T00:40:33.486Z,994.91
2022-09-20T00:41:33.456Z,994.92
2022-09-20T00:42:33.404Z,994.90
2022-09-20T00:43:33.404Z,994.95
2022-09-20T00:44:33.377Z,994.95
2022-09-20T00:45:33.745Z,994.96
2022-09-20T00:46:33.404Z,994.89
2022-09-20T00:47:33.349Z,994.98
2022-09-20T00:48:33.334Z,994.98
2022-09-20T00:49:33.335Z,994.97
2022-09-20T00:50:33.306Z,994.92
2022-09-20T00:51:33.378Z,994.93
2022-09-20T00:52:33.284Z,994.89
2022-09-20T00:53:33.276Z,994.90
2022-09-20T00:54:33.254Z,994.98
2022-09-20T00:55:33.234Z,995.00
2022-09-20T00:56:33.263Z,994.93
2022-09-20T00:57:33.246Z,994.98
2022-09-20T00:58:33.203Z,995.03
2022-09-20T00:59:33.195Z,995.05
2022-09-20T01:00:33.173Z,995.01
2022-09-20T01:01:33.257Z,995.09
2022-09-20T01:02:33.214Z,995.02
2022-09-20T01:03:33.134Z,995.01
2022-09-20T01:04:33.117Z,995.06
2022-09-20T01:05:33.114Z,995.04
2022-09-20T01:06:33.145Z,995.00
2022-09-20T01:07:33.094Z,995.04
2022-09-20T01:08:33.074Z,995.03
2022-09-20T01:09:33.063Z,995.03
2022-09-20T01:10:33.053Z,995.01
2022-09-20T01:11:33.074Z,995.02
2022-09-20T01:12:33.026Z,995.03
2022-09-20T01:13:33.013Z,995.08
2022-09-20T01:14:33.003Z,995.09
2022-09-20T01:15:33.004Z,995.03
2022-09-20T01:16:33.090Z,995.03
2022-09-20T01:17:32.957Z,995.12
2022-09-20T01:18:32.932Z,995.01
2022-09-20T01:19:32.930Z,995.07
2022-09-20T01:20:32.904Z,995.06
2022-09-20T01:21:32.931Z,995.06
2022-09-20T01:22:32.923Z,995.08
2022-09-20T01:23:32.909Z,995.11
2022-09-20T01:24:32.902Z,995.09
2022-09-20T01:25:32.842Z,995.08
2022-09-20T01:26:32.885Z,995.12
2022-09-20T01:27:32.822Z,995.10
2022-09-20T01:28:32.862Z,995.09
2022-09-20T01:29:32.793Z,995.11
2022-09-20T01:30:32.799Z,995.07
2022-09-20T01:31:32.832Z,995.06
2022-09-20T01:32:32.994Z,995.10
2022-09-20T01:33:32.953Z,995.09
2022-09-20T01:34:32.726Z,995.07
2022-09-20T01:35:32.719Z,995.08
2022-09-20T01:36:32.733Z,995.07
2022-09-20T01:37:32.693Z,995.08
2022-09-20T01:38:32.670Z,995.03
2022-09-20T01:39:32.662Z,995.02
2022-09-20T01:40:32.707Z,995.05
2022-09-20T01:41:32.669Z,995.06
2022-09-20T01:42:32.620Z,995.08
2022-09-20T01:43:32.614Z,995.03
2022-09-20T01:44:32.595Z,995.01
2022-09-20T01:45:32.846Z,995.09
2022-09-20T01:46:32.593Z,995.00
2022-09-20T01:47:32.561Z,995.03
2022-09-20T01:48:32.540Z,995.02
2022-09-20T01:49:32.563Z,994.99
2022-09-20T01:50:32.523Z,995.03
2022-09-20T01:51:32.540Z,995.05
2022-09-20T01:52:32.482Z,995.03
2022-09-20T01:53:32.511Z,995.04
2022-09-20T01:54:32.471Z,995.07
2022-09-20T01:55:32.457Z,995.05
2022-09-20T01:56:32.469Z,995.06
2022-09-20T01:57:32.456Z,995.08
2022-09-20T01:58:32.400Z,995.04
2022-09-20T01:59:32.657Z,995.08
2022-09-20T02:00:32.391Z,995.12
2022-09-20T02:01:32.479Z,995.08
2022-09-20T02:02:32.449Z,995.11
2022-09-20T02:03:32.362Z,995.11
2022-09-20T02:04:32.330Z,995.07
2022-09-20T02:05:33.048Z,995.10
2022-09-20T02:06:32.330Z,995.10
2022-09-20T02:07:32.301Z,995.14
2022-09-20T02:08:32.300Z,995.17
2022-09-20T02:09:32.261Z,995.16
2022-09-20T02:10:32.251Z,995.13
2022-09-20T02:11:32.270Z,995.15
2022-09-20T02:12:33.737Z,995.14
2022-09-20T02:13:32.221Z,995.13
2022-09-20T02:14:32.409Z,995.12
2022-09-20T02:15:32.189Z,995.12
2022-09-20T02:16:32.252Z,995.11
2022-09-20T02:17:32.201Z,995.12
2022-09-20T02:18:32.156Z,995.15
2022-09-20T02:19:32.129Z,995.09
2022-09-20T02:20:32.129Z,995.13
2022-09-20T02:21:32.129Z,995.05
2022-09-20T02:22:32.107Z,995.07
2022-09-20T02:23:32.078Z,995.09
2022-09-20T02:24:32.069Z,995.18
2022-09-20T02:25:32.048Z,995.09
2022-09-20T02:26:32.082Z,995.16
2022-09-20T02:27:32.049Z,995.18
2022-09-20T02:28:32.028Z,995.17
2022-09-20T02:29:32.008Z,995.11
2022-09-20T02:30:32.009Z,995.21
2022-09-20T02:31:32.044Z,995.17
2022-09-20T02:32:31.976Z,995.13
2022-09-20T02:33:31.967Z,995.15
2022-09-20T02:34:32.719Z,995.10
2022-09-20T02:35:31.929Z,995.17
2022-09-20T02:36:31.960Z,995.14
2022-09-20T02:37:31.908Z,995.18
2022-09-20T02:38:31.899Z,995.17
2022-09-20T02:39:31.891Z,995.16
2022-09-20T02:40:31.913Z,995.07
2022-09-20T02:41:31.887Z,995.12
2022-09-20T02:42:31.829Z,995.14
2022-09-20T02:43:31.818Z,995.12
2022-09-20T02:44:31.797Z,995.15
2022-09-20T02:45:31.829Z,995.16
2022-09-20T02:46:31.819Z,995.04
2022-09-20T02:47:31.777Z,995.14
2022-09-20T02:48:31.748Z,995.05
2022-09-20T02:49:31.740Z,995.13
2022-09-20T02:50:31.727Z,995.13
2022-09-20T02:51:31.747Z,995.19
2022-09-20T02:52:31.697Z,995.20
2022-09-20T02:53:31.686Z,995.16
2022-09-20T02:54:31.676Z,995.21
2022-09-20T02:55:31.709Z,995.24
2022-09-20T02:56:31.666Z,995.23
2022-09-20T02:57:31.637Z,995.24
2022-09-20T02:58:31.633Z,995.20
2022-09-20T02:59:31.608Z,995.23
2022-09-20T03:00:32.267Z,995.19
2022-09-20T03:01:31.667Z,995.24
2022-09-20T03:02:31.725Z,995.24
2022-09-20T03:03:31.558Z,995.19
2022-09-20T03:04:31.539Z,995.28
2022-09-20T03:05:31.539Z,995.23
2022-09-20T03:06:31.537Z,995.28
2022-09-20T03:07:31.517Z,995.25
2022-09-20T03:08:31.486Z,995.27
2022-09-20T03:09:31.478Z,995.32
2022-09-20T03:10:31.459Z,995.26
2022-09-20T03:11:31.476Z,995.29
2022-09-20T03:12:31.468Z,995.22
2022-09-20T03:13:31.423Z,995.26
2022-09-20T03:14:32.177Z,995.28
2022-09-20T03:15:31.415Z,995.31
2022-09-20T03:16:31.491Z,995.28
2022-09-20T03:17:31.376Z,995.28
2022-09-20T03:18:31.366Z,995.26
2022-09-20T03:19:31.369Z,995.28
2022-09-20T03:20:31.327Z,995.25
2022-09-20T03:21:31.359Z,995.26
2022-09-20T03:22:31.305Z,995.23
2022-09-20T03:23:31.295Z,995.24
2022-09-20T03:24:31.296Z,995.26
2022-09-20T03:25:32.064Z,995.28
2022-09-20T03:26:31.284Z,995.27
2022-09-20T03:27:31.257Z,995.26
2022-09-20T03:28:31.243Z,995.29
2022-09-20T03:29:31.217Z,995.32
2022-09-20T03:30:31.204Z,995.27
2022-09-20T03:31:31.272Z,995.33
2022-09-20T03:32:31.174Z,995.30
2022-09-20T03:33:31.172Z,995.36
2022-09-20T03:34:31.193Z,995.31
2022-09-20T03:35:31.137Z,995.32
2022-09-20T03:36:31.145Z,995.32
2022-09-20T03:37:31.121Z,995.36
2022-09-20T03:38:31.116Z,995.31
2022-09-20T03:39:31.104Z,995.34
2022-09-20T03:40:31.111Z,995.34
2022-09-20T03:41:31.093Z,995.26
2022-09-20T03:42:31.046Z,995.32
2022-09-20T03:43:31.035Z,995.22
2022-09-20T03:44:31.014Z,995.17
2022-09-20T03:45:31.073Z,995.19
2022-09-20T03:46:31.014Z,995.18
2022-09-20T03:47:30.992Z,995.19
2022-09-20T03:48:30.980Z,995.23
2022-09-20T03:49:30.953Z,995.21
2022-09-20T03:50:30.953Z,995.23
2022-09-20T03:51:34.197Z,995.18
2022-09-20T03:52:30.913Z,995.19
2022-09-20T03:53:30.894Z,995.19
2022-09-20T03:54:30.912Z,995.14
2022-09-20T03:55:30.874Z,995.20
2022-09-20T03:56:30.904Z,995.28
2022-09-20T03:57:30.871Z,995.27
2022-09-20T03:58:30.840Z,995.25
2022-09-20T03:59:30.822Z,995.23
2022-09-20T04:00:30.812Z,995.17
2022-09-20T04:01:30.881Z,995.23
2022-09-20T04:02:30.836Z,995.26
2022-09-20T04:03:30.775Z,995.29
2022-09-20T04:04:30.752Z,995.23
2022-09-20T04:05:30.782Z,995.26
2022-09-20T04:06:30.772Z,995.31
2022-09-20T04:07:30.733Z,995.34
2022-09-20T04:08:30.740Z,995.34
2022-09-20T04:09:30.691Z,995.33
2022-09-20T04:10:30.682Z,995.39
2022-09-20T04:11:30.693Z,995.45
2022-09-20T04:12:30.653Z,995.40
2022-09-20T04:13:30.642Z,995.45
2022-09-20T04:14:30.622Z,995.39
2022-09-20T04:15:30.607Z,995.35
2022-09-20T04:16:30.992Z,995.41
2022-09-20T04:17:30.614Z,995.35
2022-09-20T04:18:30.672Z,995.36
2022-09-20T04:19:33.044Z,995.29
2022-09-20T04:20:30.625Z,995.31
2022-09-20T04:21:30.551Z,995.33
2022-09-20T04:22:30.531Z,995.32
2022-09-20T04:23:30.501Z,995.34
2022-09-20T04:24:30.490Z,995.35
2022-09-20T04:25:30.513Z,995.33
2022-09-20T04:26:30.490Z,995.37
2022-09-20T04:27:30.458Z,995.35
2022-09-20T04:28:30.453Z,995.37
2022-09-20T04:29:30.424Z,995.36
2022-09-20T04:30:30.417Z,995.41
2022-09-20T04:31:31.289Z,995.38
2022-09-20T04:32:30.390Z,995.36
2022-09-20T04:33:30.370Z,995.40
2022-09-20T04:34:30.362Z,995.40
2022-09-20T04:35:30.339Z,995.45
2022-09-20T04:36:30.389Z,995.52
2022-09-20T04:37:30.310Z,995.46
2022-09-20T04:38:30.320Z,995.50
2022-09-20T04:39:30.266Z,995.48
2022-09-20T04:40:30.336Z,995.45
2022-09-20T04:41:32.018Z,995.51
2022-09-20T04:42:31.140Z,995.51
2022-09-20T04:43:30.279Z,995.46
2022-09-20T04:44:30.898Z,995.49
2022-09-20T04:45:30.252Z,995.50
2022-09-20T04:46:30.181Z,995.56
2022-09-20T04:47:30.150Z,995.55
2022-09-20T04:48:30.159Z,995.55
2022-09-20T04:49:30.127Z,995.68
2022-09-20T04:50:30.259Z,995.63
2022-09-20T04:51:30.111Z,995.64
2022-09-20T04:52:30.082Z,995.64
2022-09-20T04:53:30.069Z,995.61
2022-09-20T04:54:30.052Z,995.56
2022-09-20T04:55:30.030Z,995.57
2022-09-20T04:56:30.057Z,995.55
2022-09-20T04:57:30.018Z,995.58
2022-09-20T04:58:30.059Z,995.58
2022-09-20T04:59:29.979Z,995.63
2022-09-20T05:00:29.968Z,995.68
2022-09-20T05:01:32.382Z,995.65
2022-09-20T05:02:30.044Z,995.67
2022-09-20T05:03:29.938Z,995.71
2022-09-20T05:04:30.200Z,995.72
2022-09-20T05:05:29.899Z,995.73
2022-09-20T05:06:29.917Z,995.67
2022-09-20T05:07:29.878Z,995.67
2022-09-20T05:08:29.857Z,995.64
2022-09-20T05:09:29.858Z,995.71
2022-09-20T05:10:29.852Z,995.73
2022-09-20T05:11:29.867Z,995.72
2022-09-20T05:12:29.862Z,995.74
2022-09-20T05:13:29.858Z,995.71
2022-09-20T05:14:32.857Z,995.67
2022-09-20T05:15:30.581Z,995.71
2022-09-20T05:16:30.686Z,995.76
2022-09-20T05:17:30.602Z,995.77
2022-09-20T05:18:30.327Z,995.72
2022-09-20T05:19:29.740Z,995.75
2022-09-20T05:20:29.730Z,995.78
2022-09-20T05:21:29.748Z,995.78
2022-09-20T05:22:29.760Z,995.80
2022-09-20T05:23:30.578Z,995.80
2022-09-20T05:24:29.656Z,995.84
2022-09-20T05:25:29.640Z,995.84
2022-09-20T05:26:29.666Z,995.83
2022-09-20T05:27:29.651Z,995.83
2022-09-20T05:28:30.362Z,995.80
2022-09-20T05:29:30.074Z,995.84
2022-09-20T05:30:31.028Z,995.80
2022-09-20T05:31:29.654Z,995.86
2022-09-20T05:32:30.175Z,995.88
2022-09-20T05:33:30.334Z,995.88
2022-09-20T05:34:29.524Z,995.89
2022-09-20T05:35:29.506Z,995.87
2022-09-20T05:36:34.200Z,995.93
2022-09-20T05:37:30.508Z,995.97
2022-09-20T05:39:29.446Z,995.95
2022-09-20T05:40:29.488Z,995.99
2022-09-20T05:41:29.457Z,996.00
2022-09-20T05:42:29.421Z,995.97
2022-09-20T05:43:29.407Z,995.99
2022-09-20T05:44:29.405Z,995.99
2022-09-20T05:45:29.445Z,996.00
2022-09-20T05:46:29.448Z,995.97
2022-09-20T05:47:29.365Z,995.98
2022-09-20T05:48:29.345Z,996.00
2022-09-20T05:49:29.326Z,995.96
2022-09-20T05:50:29.325Z,995.93
2022-09-20T05:51:29.352Z,996.01
2022-09-20T05:52:29.289Z,995.99
2022-09-20T05:53:30.053Z,995.96
2022-09-20T05:54:29.254Z,996.06
2022-09-20T05:55:29.250Z,995.99
2022-09-20T05:56:29.285Z,996.00
2022-09-20T05:57:29.231Z,995.95
2022-09-20T05:58:29.215Z,995.99
2022-09-20T05:59:29.201Z,996.02
2022-09-20T06:00:29.197Z,996.01
2022-09-20T06:01:29.254Z,996.04
2022-09-20T06:02:29.228Z,996.08
2022-09-20T06:03:29.147Z,996.10
2022-09-20T06:04:29.125Z,996.07
2022-09-20T06:05:29.114Z,996.10
2022-09-20T06:06:32.404Z,996.12
2022-09-20T06:07:29.093Z,996.11
2022-09-20T06:08:29.078Z,996.17
2022-09-20T06:09:29.054Z,996.16
2022-09-20T06:10:29.065Z,996.21
2022-09-20T06:11:29.064Z,996.25
2022-09-20T06:12:29.094Z,996.22
2022-09-20T06:13:30.231Z,996.28
2022-09-20T06:14:28.999Z,996.26
2022-09-20T06:15:29.953Z,996.28
2022-09-20T06:16:29.117Z,996.27
2022-09-20T06:17:28.955Z,996.32
2022-09-20T06:18:28.943Z,996.29
2022-09-20T06:19:29.682Z,996.34
2022-09-20T06:20:28.923Z,996.31
2022-09-20T06:21:29.283Z,996.32
2022-09-20T06:22:28.902Z,996.40
2022-09-20T06:23:28.912Z,996.32
2022-09-20T06:24:29.365Z,996.30
2022-09-20T06:25:28.842Z,996.33
2022-09-20T06:26:28.863Z,996.32
2022-09-20T06:27:28.822Z,996.34
2022-09-20T06:28:28.824Z,996.37
2022-09-20T06:29:28.794Z,996.36
2022-09-20T06:30:28.823Z,996.35
2022-09-20T06:31:28.820Z,996.38
2022-09-20T06:32:28.759Z,996.40
2022-09-20T06:33:28.783Z,996.43
2022-09-20T06:34:28.771Z,996.44
2022-09-20T06:35:28.711Z,996.46
2022-09-20T06:36:28.752Z,996.47
2022-09-20T06:37:28.700Z,996.42
2022-09-20T06:38:28.678Z,996.49
2022-09-20T06:39:28.662Z,996.47
2022-09-20T06:40:28.695Z,996.46
2022-09-20T06:41:28.707Z,996.49
2022-09-20T06:42:28.632Z,996.48
2022-09-20T06:43:28.623Z,996.50
2022-09-20T06:44:28.622Z,996.48
2022-09-20T06:45:28.594Z,996.55
2022-09-20T06:46:28.609Z,996.56
2022-09-20T06:47:28.561Z,996.53
2022-09-20T06:48:28.552Z,996.51
2022-09-20T06:49:28.533Z,996.51
2022-09-20T06:50:28.520Z,996.45
2022-09-20T06:51:28.573Z,996.49
2022-09-20T06:52:28.495Z,996.49
2022-09-20T06:53:28.480Z,996.43
2022-09-20T06:54:28.470Z,996.49
2022-09-20T06:55:29.273Z,996.44
2022-09-20T06:56:28.480Z,996.41
2022-09-20T06:57:28.430Z,996.47
2022-09-20T06:58:28.421Z,996.40
2022-09-20T06:59:28.403Z,996.45
2022-09-20T07:00:28.390Z,996.48
2022-09-20T07:01:30.411Z,996.45
2022-09-20T07:02:28.389Z,996.46
2022-09-20T07:03:28.361Z,996.47
2022-09-20T07:04:28.342Z,996.48
2022-09-20T07:05:28.334Z,996.53
2022-09-20T07:06:28.340Z,996.53
2022-09-20T07:07:28.300Z,996.50
2022-09-20T07:08:28.288Z,996.49
2022-09-20T07:09:28.279Z,996.54
2022-09-20T07:10:28.253Z,996.53
2022-09-20T07:11:28.303Z,996.54
2022-09-20T07:12:28.257Z,996.46
2022-09-20T07:13:28.211Z,996.50
2022-09-20T07:14:28.210Z,996.53
2022-09-20T07:15:28.179Z,996.51
2022-09-20T07:16:28.256Z,996.56
2022-09-20T07:17:28.179Z,996.56
2022-09-20T07:18:28.200Z,996.57
2022-09-20T07:19:28.155Z,996.61
2022-09-20T07:20:28.123Z,996.61
2022-09-20T07:21:28.141Z,996.64
2022-09-20T07:22:28.100Z,996.66
2022-09-20T07:23:28.099Z,996.63
2022-09-20T07:24:28.090Z,996.59
2022-09-20T07:25:28.056Z,996.60
2022-09-20T07:26:28.099Z,996.60
2022-09-20T07:27:29.495Z,996.65
2022-09-20T07:28:28.978Z,996.61
2022-09-20T07:29:27.998Z,996.64
2022-09-20T07:30:28.011Z,996.69
2022-09-20T07:31:28.764Z,996.66
2022-09-20T07:32:27.975Z,996.70
2022-09-20T07:33:27.979Z,996.74
2022-09-20T07:34:27.961Z,996.61
2022-09-20T07:35:27.925Z,996.61
2022-09-20T07:36:28.021Z,996.69
2022-09-20T07:37:27.919Z,996.64
2022-09-20T07:38:27.888Z,996.65
2022-09-20T07:39:27.956Z,996.67
2022-09-20T07:40:27.927Z,996.73
2022-09-20T07:41:27.878Z,996.71
2022-09-20T07:42:27.828Z,996.66
2022-09-20T07:43:27.828Z,996.69
2022-09-20T07:44:27.845Z,996.73
2022-09-20T07:45:27.821Z,996.81
2022-09-20T07:46:27.818Z,996.79
2022-09-20T07:47:27.773Z,996.78
2022-09-20T07:48:27.776Z,996.82
2022-09-20T07:49:27.748Z,996.89
2022-09-20T07:50:27.727Z,996.84
2022-09-20T07:51:27.767Z,996.86
2022-09-20T07:52:27.734Z,996.88
2022-09-20T07:53:27.684Z,996.88
2022-09-20T07:54:27.674Z,996.88
2022-09-20T07:55:27.668Z,996.88
2022-09-20T07:56:27.690Z,996.89
2022-09-20T07:57:27.636Z,996.89
2022-09-20T07:58:27.630Z,996.85
2022-09-20T07:59:27.618Z,996.86
2022-09-20T08:00:27.620Z,996.91
2022-09-20T08:01:27.674Z,996.84
2022-09-20T08:02:27.623Z,996.94
2022-09-20T08:03:27.557Z,996.90
2022-09-20T08:04:27.548Z,996.96
2022-09-20T08:05:27.951Z,996.90
2022-09-20T08:06:27.549Z,996.96
2022-09-20T08:07:27.568Z,996.97
2022-09-20T08:08:27.485Z,996.96
2022-09-20T08:09:27.487Z,996.99
2022-09-20T08:10:27.460Z,997.02
2022-09-20T08:11:27.869Z,997.02
2022-09-20T08:14:28.717Z,997.09
2022-09-20T08:15:27.649Z,997.08
2022-09-20T08:16:27.804Z,997.11
2022-09-20T08:17:27.426Z,997.09
2022-09-20T08:18:27.369Z,997.16
2022-09-20T08:19:27.371Z,997.17
2022-09-20T08:20:27.328Z,997.18
2022-09-20T08:21:27.887Z,997.20
2022-09-20T08:22:27.310Z,997.15
2022-09-20T08:23:27.298Z,997.10
2022-09-20T08:24:27.289Z,997.13
2022-09-20T08:25:27.257Z,997.15
2022-09-20T08:26:27.283Z,997.11
2022-09-20T08:27:27.247Z,997.18
2022-09-20T08:28:27.239Z,997.13
2022-09-20T08:29:27.217Z,997.20
2022-09-20T08:30:27.761Z,997.17
2022-09-20T08:31:27.278Z,997.17
2022-09-20T08:32:27.187Z,997.15
2022-09-20T08:33:27.169Z,997.15
2022-09-20T08:34:27.224Z,997.13
2022-09-20T08:35:27.146Z,997.16
2022-09-20T08:36:30.980Z,997.13
2022-09-20T08:37:28.121Z,997.15
2022-09-20T08:40:28.127Z,997.15
2022-09-20T08:41:27.109Z,997.14
2022-09-20T08:42:27.040Z,997.15
2022-09-20T08:43:27.047Z,997.16
2022-09-20T08:44:27.026Z,997.15
2022-09-20T08:45:35.085Z,997.16
2022-09-20T08:46:28.045Z,997.15
2022-09-20T08:47:26.997Z,997.12
2022-09-20T08:48:26.968Z,997.11
2022-09-20T08:49:26.965Z,997.11
2022-09-20T08:50:26.965Z,997.15
2022-09-20T08:51:26.947Z,997.13
2022-09-20T08:52:26.897Z,997.13
2022-09-20T08:53:26.924Z,997.16
2022-09-20T08:54:32.179Z,997.11
2022-09-20T08:55:27.886Z,997.17
2022-09-20T08:56:26.886Z,997.23
2022-09-20T08:57:26.838Z,997.18
2022-09-20T08:58:27.056Z,997.15
2022-09-20T08:59:26.809Z,997.17
2022-09-20T09:00:27.635Z,997.21
2022-09-20T09:01:26.867Z,997.24
2022-09-20T09:02:26.833Z,997.13
2022-09-20T09:03:26.768Z,997.12
2022-09-20T09:04:26.759Z,997.14
2022-09-20T09:05:26.951Z,997.12
2022-09-20T09:06:26.779Z,997.15
2022-09-20T09:07:26.769Z,997.15
2022-09-20T09:08:27.641Z,997.17
2022-09-20T09:09:26.677Z,997.25
2022-09-20T09:10:26.682Z,997.24
2022-09-20T09:11:26.674Z,997.27
2022-09-20T09:12:26.667Z,997.26
2022-09-20T09:13:26.649Z,997.27
2022-09-20T09:14:26.840Z,997.27
2022-09-20T09:15:26.609Z,997.28
2022-09-20T09:16:33.715Z,997.31
2022-09-20T09:17:27.913Z,997.29
2022-09-20T09:18:31.738Z,997.30
2022-09-20T09:19:33.266Z,997.33
2022-09-20T09:20:27.537Z,997.27
2022-09-20T09:21:26.535Z,997.22
2022-09-20T09:22:26.539Z,997.32
2022-09-20T09:23:26.498Z,997.27
2022-09-20T09:24:26.489Z,997.36
2022-09-20T09:25:26.469Z,997.37
2022-09-20T09:26:26.457Z,997.35
2022-09-20T09:27:26.489Z,997.34
2022-09-20T09:28:26.437Z,997.41
2022-09-20T09:29:26.419Z,997.40
2022-09-20T09:30:26.398Z,997.37
2022-09-20T09:31:26.436Z,997.36
2022-09-20T09:32:26.412Z,997.35
2022-09-20T09:33:26.358Z,997.33
2022-09-20T09:34:26.338Z,997.37
2022-09-20T09:35:26.519Z,997.38
2022-09-20T09:36:26.318Z,997.37
2022-09-20T09:37:28.799Z,997.39
2022-09-20T09:38:26.458Z,997.45
2022-09-20T09:39:26.905Z,997.42
2022-09-20T09:40:26.423Z,997.39
2022-09-20T09:41:26.420Z,997.41
2022-09-20T09:42:26.485Z,997.47
2022-09-20T09:43:26.451Z,997.47
2022-09-20T09:44:26.319Z,997.42
2022-09-20T09:45:26.692Z,997.46
2022-09-20T09:46:26.525Z,997.48
2022-09-20T09:47:26.339Z,997.39
2022-09-20T09:48:26.474Z,997.46
2022-09-20T09:49:26.277Z,997.46
2022-09-20T09:50:26.414Z,997.44
2022-09-20T09:51:26.118Z,997.41
2022-09-20T09:52:26.201Z,997.40
2022-09-20T09:53:26.127Z,997.43
2022-09-20T09:54:26.267Z,997.41
2022-09-20T09:55:26.071Z,997.45
2022-09-20T09:56:26.115Z,997.40
2022-09-20T09:57:26.186Z,997.42
2022-09-20T09:58:26.018Z,997.41
2022-09-20T09:59:26.026Z,997.41
2022-09-20T10:00:26.007Z,997.41
2022-09-20T10:01:28.019Z,997.37
2022-09-20T10:02:27.050Z,997.36
2022-09-20T10:03:25.968Z,997.37
2022-09-20T10:04:25.955Z,997.36
2022-09-20T10:05:25.928Z,997.31
2022-09-20T10:06:25.910Z,997.32
2022-09-20T10:07:25.940Z,997.28
2022-09-20T10:08:25.954Z,997.32
2022-09-20T10:09:25.875Z,997.27
2022-09-20T10:10:25.860Z,997.26
2022-09-20T10:11:25.862Z,997.29
2022-09-20T10:12:25.881Z,997.29
2022-09-20T10:13:25.828Z,997.27
2022-09-20T10:14:25.798Z,997.29
2022-09-20T10:15:25.919Z,997.26
2022-09-20T10:16:25.881Z,997.30
2022-09-20T10:17:25.816Z,997.29
2022-09-20T10:18:25.827Z,997.27
2022-09-20T10:19:25.743Z,997.24
2022-09-20T10:20:25.732Z,997.24
2022-09-20T10:21:25.719Z,997.23
2022-09-20T10:22:25.728Z,997.24
2022-09-20T10:24:01.904Z,997.20
2022-09-20T10:24:26.678Z,997.24
2022-09-20T10:25:25.669Z,997.20
2022-09-20T10:26:25.759Z,997.18
2022-09-20T10:27:25.826Z,997.22
2022-09-20T10:28:25.619Z,997.24
2022-09-20T10:29:25.611Z,997.22
2022-09-20T10:30:25.669Z,997.21
2022-09-20T10:31:26.049Z,997.21
2022-09-20T10:32:25.601Z,997.22
2022-09-20T10:33:25.562Z,997.16
2022-09-20T10:34:25.543Z,997.23
2022-09-20T10:35:25.531Z,997.21
2022-09-20T10:36:25.510Z,997.20
2022-09-20T10:37:25.558Z,997.25
2022-09-20T10:38:25.490Z,997.24
2022-09-20T10:39:25.479Z,997.23
2022-09-20T10:40:26.461Z,997.21
2022-09-20T10:41:25.449Z,997.18
2022-09-20T10:42:25.472Z,997.16
2022-09-20T10:43:25.432Z,997.18
2022-09-20T10:44:25.410Z,997.20
2022-09-20T10:45:59.123Z,997.28
2022-09-20T10:46:33.982Z,997.20
2022-09-20T10:47:26.491Z,997.23
2022-09-20T10:48:25.361Z,997.22
2022-09-20T10:49:25.342Z,997.21
2022-09-20T10:50:25.444Z,997.22
2022-09-20T10:51:25.330Z,997.21
2022-09-20T10:52:25.360Z,997.18
2022-09-20T10:53:25.291Z,997.20
2022-09-20T10:54:25.281Z,997.21
2022-09-20T10:55:25.312Z,997.22
2022-09-20T10:56:25.252Z,997.21
2022-09-20T10:57:25.299Z,997.15
2022-09-20T10:58:25.221Z,997.17
2022-09-20T10:59:25.315Z,997.23
2022-09-20T11:00:25.192Z,997.26
2022-09-20T11:01:25.242Z,997.15
2022-09-20T11:02:25.284Z,997.15
2022-09-20T11:03:25.202Z,997.16
2022-09-20T11:04:25.142Z,997.14
2022-09-20T11:05:25.132Z,997.15
2022-09-20T11:06:25.113Z,997.17
2022-09-20T11:07:25.150Z,997.12
2022-09-20T11:08:25.092Z,997.12
2022-09-20T11:09:25.083Z,997.17
2022-09-20T11:10:25.062Z,997.13
2022-09-20T11:11:25.053Z,997.12
2022-09-20T11:12:25.089Z,997.09
2022-09-20T11:13:25.034Z,997.11
2022-09-20T11:14:25.021Z,997.10
2022-09-20T11:15:25.003Z,997.10
2022-09-20T11:16:25.009Z,997.08
2022-09-20T11:17:25.032Z,997.03
2022-09-20T11:18:24.960Z,997.09
2022-09-20T11:19:24.974Z,997.10
2022-09-20T11:20:24.933Z,997.14
2022-09-20T11:21:24.939Z,997.08
2022-09-20T11:22:24.954Z,997.11
2022-09-20T11:23:24.967Z,997.09
2022-09-20T11:24:24.886Z,997.12
2022-09-20T11:25:29.272Z,997.12
2022-09-20T11:26:24.855Z,997.07
2022-09-20T11:27:24.884Z,997.14
2022-09-20T11:28:24.838Z,997.08
2022-09-20T11:29:24.824Z,997.02
2022-09-20T11:30:24.817Z,997.15
2022-09-20T11:31:24.875Z,997.15
2022-09-20T11:32:24.822Z,997.14
2022-09-20T11:33:24.780Z,997.11
2022-09-20T11:34:24.762Z,997.08
2022-09-20T11:35:24.750Z,997.10
2022-09-20T11:36:24.729Z,997.12
2022-09-20T11:37:24.766Z,997.09
2022-09-20T11:38:24.695Z,997.14
2022-09-20T11:39:24.694Z,997.17
2022-09-20T11:40:24.711Z,997.15
2022-09-20T11:41:24.674Z,997.19
2022-09-20T11:42:24.686Z,997.23
2022-09-20T11:43:24.635Z,997.23
2022-09-20T11:44:24.624Z,997.22
2022-09-20T11:45:28.278Z,997.28
2022-09-20T11:46:24.698Z,997.22
2022-09-20T11:47:49.963Z,997.21
2022-09-20T11:48:25.576Z,997.22
2022-09-20T11:49:24.556Z,997.16
2022-09-20T11:50:24.557Z,997.18
2022-09-20T11:51:24.538Z,997.12
2022-09-20T11:52:24.585Z,997.11
2022-09-20T11:53:24.534Z,997.11
2022-09-20T11:54:24.487Z,997.06
2022-09-20T11:55:24.486Z,997.13
2022-09-20T11:56:24.477Z,997.08
2022-09-20T11:57:24.492Z,997.14
2022-09-20T11:58:24.437Z,997.13
2022-09-20T11:59:24.432Z,997.12
2022-09-20T12:00:25.878Z,997.15
2022-09-20T12:01:28.074Z,997.14
2022-09-20T12:02:24.577Z,997.10
2022-09-20T12:03:24.478Z,997.20
2022-09-20T12:04:33.324Z,997.24
2022-09-20T12:05:25.349Z,997.18
2022-09-20T12:06:24.339Z,997.24
2022-09-20T12:07:24.358Z,997.21
2022-09-20T12:08:24.309Z,997.21
2022-09-20T12:09:24.310Z,997.16
2022-09-20T12:10:24.288Z,997.16
2022-09-20T12:11:24.269Z,997.20
2022-09-20T12:12:24.292Z,997.23
2022-09-20T12:13:24.258Z,997.32
2022-09-20T12:14:24.230Z,997.26
2022-09-20T12:15:24.219Z,997.28
2022-09-20T12:16:24.360Z,997.37
2022-09-20T12:17:24.229Z,997.32
2022-09-20T12:18:24.254Z,997.40
2022-09-20T12:19:24.197Z,997.39
2022-09-20T12:20:24.169Z,997.43
2022-09-20T12:21:24.151Z,997.43
2022-09-20T12:22:24.152Z,997.45
2022-09-20T12:23:24.200Z,997.44
2022-09-20T12:24:24.108Z,997.47
2022-09-20T12:25:24.092Z,997.45
2022-09-20T12:26:24.081Z,997.45
2022-09-20T12:27:24.101Z,997.41
2022-09-20T12:28:24.058Z,997.43
2022-09-20T12:29:24.112Z,997.42
2022-09-20T12:30:24.024Z,997.43
2022-09-20T12:31:24.102Z,997.45
2022-09-20T12:32:24.020Z,997.47
2022-09-20T12:33:23.993Z,997.46